sensor_id;sensor_type;location;lat;lon;timestamp;pressure;altitude;pressure_sealevel;temperature;humidity
69848;BME280;57143;55.940;37.496;2023-12-07T00:01:07;101440.41;;;-9.58;100.00
69848;BME280;57143;55.940;37.496;2023-12-07T00:03:34;101447.16;;;-9.49;100.00
69848;BME280;57143;55.940;37.496;2023-12-07T00:06:04;101407.53;;;-9.68;100.00
69848;BME280;57143;55.940;37.496;2023-12-07T00:08:31;101445.91;;;-9.37;100.00
69848;BME280;57143;55.940;37.496;2023-12-07T00:10:59;101434.78;;;-9.45;100.00
69848;BME280;57143;55.940;37.496;2023-12-07T00:13:26;101419.97;;;-9.46;100.00
69848;BME280;57143;55.940;37.496;2023-12-07T00:15:53;101433.06;;;-9.46;100.00
69848;BME280;57143;55.940;37.496;2023-12-07T00:18:21;101442.25;;;-9.33;100.00
69848;BME280;57143;55.940;37.496;2023-12-07T00:20:48;101448.13;;;-9.25;100.00
69848;BME280;57143;55.940;37.496;2023-12-07T00:23:17;101444.63;;;-9.26;100.00
69848;BME280;57143;55.940;37.496;2023-12-07T00:25:44;101452.72;;;-9.32;100.00
69848;BME280;57143;55.940;37.496;2023-12-07T00:28:12;101444.16;;;-9.37;100.00
69848;BME280;57143;55.940;37.496;2023-12-07T00:30:40;101446.50;;;-9.29;100.00
69848;BME280;57143;55.940;37.496;2023-12-07T00:33:08;101400.19;;;-9.57;100.00
69848;BME280;57143;55.940;37.496;2023-12-07T00:35:36;101443.34;;;-9.39;100.00
69848;BME280;57143;55.940;37.496;2023-12-07T00:38:03;101442.22;;;-9.32;100.00
69848;BME280;57143;55.940;37.496;2023-12-07T00:40:33;101451.66;;;-9.26;100.00
69848;BME280;57143;55.940;37.496;2023-12-07T00:43:02;101455.34;;;-9.32;100.00
69848;BME280;57143;55.940;37.496;2023-12-07T00:45:30;101460.63;;;-9.33;100.00
69848;BME280;57143;55.940;37.496;2023-12-07T00:47:57;101460.63;;;-9.33;100.00
69848;BME280;57143;55.940;37.496;2023-12-07T00:50:25;101455.38;;;-9.33;100.00
69848;BME280;57143;55.940;37.496;2023-12-07T00:52:52;101456.34;;;-9.36;100.00
69848;BME280;57143;55.940;37.496;2023-12-07T00:55:20;101460.06;;;-9.43;100.00
69848;BME280;57143;55.940;37.496;2023-12-07T00:57:49;101461.75;;;-9.40;100.00
69848;BME280;57143;55.940;37.496;2023-12-07T01:00:16;101467.78;;;-9.38;100.00
69848;BME280;57143;55.940;37.496;2023-12-07T01:02:44;101444.56;;;-9.49;100.00
69848;BME280;57143;55.940;37.496;2023-12-07T01:05:12;101468.88;;;-9.44;100.00
69848;BME280;57143;55.940;37.496;2023-12-07T01:07:39;101466.13;;;-9.41;100.00
69848;BME280;57143;55.940;37.496;2023-12-07T01:10:07;101467.84;;;-9.40;100.00
69848;BME280;57143;55.940;37.496;2023-12-07T01:12:35;101475.66;;;-9.38;100.00
69848;BME280;57143;55.940;37.496;2023-12-07T01:15:05;101469.72;;;-9.43;100.00
69848;BME280;57143;55.940;37.496;2023-12-07T01:17:32;101466.19;;;-9.42;100.00
69848;BME280;57143;55.940;37.496;2023-12-07T01:19:59;101478.44;;;-9.43;100.00
69848;BME280;57143;55.940;37.496;2023-12-07T01:22:29;101468.16;;;-9.49;100.00
69848;BME280;57143;55.940;37.496;2023-12-07T01:24:57;101428.72;;;-9.74;100.00
69848;BME280;57143;55.940;37.496;2023-12-07T01:27:24;101473.44;;;-9.51;100.00
69848;BME280;57143;55.940;37.496;2023-12-07T01:29:51;101476.31;;;-9.58;100.00
69848;BME280;57143;55.940;37.496;2023-12-07T01:32:20;101478.94;;;-9.58;100.00
69848;BME280;57143;55.940;37.496;2023-12-07T01:34:48;101488.72;;;-9.63;100.00
69848;BME280;57143;55.940;37.496;2023-12-07T01:37:15;101487.66;;;-9.58;100.00
69848;BME280;57143;55.940;37.496;2023-12-07T01:39:42;101486.91;;;-9.61;100.00
69848;BME280;57143;55.940;37.496;2023-12-07T01:42:10;101460.31;;;-9.78;100.00
69848;BME280;57143;55.940;37.496;2023-12-07T01:44:38;101484.41;;;-9.66;100.00
69848;BME280;57143;55.940;37.496;2023-12-07T01:47:06;101485.38;;;-9.68;100.00
69848;BME280;57143;55.940;37.496;2023-12-07T01:49:38;101484.47;;;-9.67;100.00
69848;BME280;57143;55.940;37.496;2023-12-07T01:52:06;101499.16;;;-9.62;100.00
69848;BME280;57143;55.940;37.496;2023-12-07T01:54:34;101503.44;;;-9.59;100.00
69848;BME280;57143;55.940;37.496;2023-12-07T01:57:02;101504.59;;;-9.68;100.00
69848;BME280;57143;55.940;37.496;2023-12-07T01:59:30;101493.53;;;-9.77;100.00
69848;BME280;57143;55.940;37.496;2023-12-07T02:01:57;101516.16;;;-9.75;100.00
69848;BME280;57143;55.940;37.496;2023-12-07T02:04:25;101514.50;;;-9.77;100.00
69848;BME280;57143;55.940;37.496;2023-12-07T02:06:57;101492.34;;;-9.96;100.00
69848;BME280;57143;55.940;37.496;2023-12-07T02:09:24;101513.03;;;-9.86;100.00
69848;BME280;57143;55.940;37.496;2023-12-07T02:11:52;101520.94;;;-9.87;100.00
69848;BME280;57143;55.940;37.496;2023-12-07T02:14:20;101515.91;;;-9.95;100.00
69848;BME280;57143;55.940;37.496;2023-12-07T02:16:51;101514.31;;;-10.00;100.00
69848;BME280;57143;55.940;37.496;2023-12-07T02:19:42;101526.25;;;-9.90;100.00
69848;BME280;57143;55.940;37.496;2023-12-07T02:22:21;101528.03;;;-9.91;100.00
69848;BME280;57143;55.940;37.496;2023-12-07T02:25:06;101487.97;;;-10.23;100.00
69848;BME280;57143;55.940;37.496;2023-12-07T02:27:40;101528.81;;;-9.87;100.00
69848;BME280;57143;55.940;37.496;2023-12-07T02:30:09;101528.09;;;-9.92;100.00
69848;BME280;57143;55.940;37.496;2023-12-07T02:32:37;101517.50;;;-9.89;100.00
69848;BME280;57143;55.940;37.496;2023-12-07T02:35:06;101514.94;;;-9.91;100.00
69848;BME280;57143;55.940;37.496;2023-12-07T02:37:36;101516.56;;;-9.88;100.00
69848;BME280;57143;55.940;37.496;2023-12-07T02:40:08;101527.69;;;-9.79;100.00
69848;BME280;57143;55.940;37.496;2023-12-07T02:42:39;101497.44;;;-9.92;100.00
69848;BME280;57143;55.940;37.496;2023-12-07T02:45:09;101524.28;;;-9.82;100.00
69848;BME280;57143;55.940;37.496;2023-12-07T02:47:37;101522.50;;;-9.82;100.00
69848;BME280;57143;55.940;37.496;2023-12-07T02:50:06;101503.56;;;-9.91;100.00
69848;BME280;57143;55.940;37.496;2023-12-07T02:52:34;101507.28;;;-9.98;100.00
69848;BME280;57143;55.940;37.496;2023-12-07T02:55:02;101519.44;;;-9.96;100.00
69848;BME280;57143;55.940;37.496;2023-12-07T02:57:30;101539.19;;;-9.84;100.00
69848;BME280;57143;55.940;37.496;2023-12-07T03:00:00;101547.03;;;-9.83;100.00
69848;BME280;57143;55.940;37.496;2023-12-07T03:02:32;101527.16;;;-9.91;100.00
69848;BME280;57143;55.940;37.496;2023-12-07T03:04:59;101541.56;;;-9.75;100.00
69848;BME280;57143;55.940;37.496;2023-12-07T03:07:27;101538.06;;;-9.76;100.00
69848;BME280;57143;55.940;37.496;2023-12-07T03:09:55;101541.56;;;-9.75;100.00
69848;BME280;57143;55.940;37.496;2023-12-07T03:12:22;101556.47;;;-9.77;100.00
69848;BME280;57143;55.940;37.496;2023-12-07T03:14:50;101556.75;;;-9.86;100.00
69848;BME280;57143;55.940;37.496;2023-12-07T03:17:18;101555.09;;;-9.89;100.00
69848;BME280;57143;55.940;37.496;2023-12-07T03:19:46;101560.38;;;-9.92;100.00
69848;BME280;57143;55.940;37.496;2023-12-07T03:22:13;101563.63;;;-9.82;100.00
69848;BME280;57143;55.940;37.496;2023-12-07T03:24:45;101552.47;;;-9.90;100.00
69848;BME280;57143;55.940;37.496;2023-12-07T03:27:12;101566.25;;;-9.82;100.00
69848;BME280;57143;55.940;37.496;2023-12-07T03:29:40;101550.63;;;-9.87;100.00
69848;BME280;57143;55.940;37.496;2023-12-07T03:32:07;101566.28;;;-9.84;100.00
69848;BME280;57143;55.940;37.496;2023-12-07T03:34:36;101557.91;;;-9.96;100.00
69848;BME280;57143;55.940;37.496;2023-12-07T03:37:03;101581.47;;;-9.95;100.00
69848;BME280;57143;55.940;37.496;2023-12-07T03:39:32;101575.00;;;-10.12;100.00
69848;BME280;57143;55.940;37.496;2023-12-07T03:41:59;101578.25;;;-10.04;100.00
69848;BME280;57143;55.940;37.496;2023-12-07T03:44:27;101569.81;;;-10.14;100.00
69848;BME280;57143;55.940;37.496;2023-12-07T03:46:55;101569.75;;;-10.12;100.00
69848;BME280;57143;55.940;37.496;2023-12-07T03:49:22;101565.66;;;-10.22;100.00
69848;BME280;57143;55.940;37.496;2023-12-07T03:51:51;101580.34;;;-10.15;100.00
69848;BME280;57143;55.940;37.496;2023-12-07T03:54:18;101578.88;;;-10.25;100.00
69848;BME280;57143;55.940;37.496;2023-12-07T03:56:46;101562.59;;;-10.38;100.00
69848;BME280;57143;55.940;37.496;2023-12-07T03:59:13;101592.91;;;-10.28;100.00
69848;BME280;57143;55.940;37.496;2023-12-07T04:01:41;101576.63;;;-10.39;100.00
69848;BME280;57143;55.940;37.496;2023-12-07T04:04:08;101596.53;;;-10.32;100.00
69848;BME280;57143;55.940;37.496;2023-12-07T04:06:35;101596.44;;;-10.29;100.00
69848;BME280;57143;55.940;37.496;2023-12-07T04:09:05;101581.72;;;-10.34;100.00
69848;BME280;57143;55.940;37.496;2023-12-07T04:11:32;101592.00;;;-10.27;100.00
69848;BME280;57143;55.940;37.496;2023-12-07T04:13:59;101595.38;;;-10.22;100.00
69848;BME280;57143;55.940;37.496;2023-12-07T04:16:27;101586.84;;;-10.30;100.00
69848;BME280;57143;55.940;37.496;2023-12-07T04:18:54;101595.56;;;-10.29;100.00
69848;BME280;57143;55.940;37.496;2023-12-07T04:21:22;101599.59;;;-10.18;100.00
69848;BME280;57143;55.940;37.496;2023-12-07T04:23:49;101581.91;;;-10.42;100.00
69848;BME280;57143;55.940;37.496;2023-12-07T04:26:18;101593.13;;;-10.37;100.00
69848;BME280;57143;55.940;37.496;2023-12-07T04:28:46;101600.19;;;-10.39;100.00
69848;BME280;57143;55.940;37.496;2023-12-07T04:31:13;101606.09;;;-10.31;100.00
69848;BME280;57143;55.940;37.496;2023-12-07T04:33:40;101609.63;;;-10.33;100.00
69848;BME280;57143;55.940;37.496;2023-12-07T04:36:09;101600.75;;;-10.28;100.00
69848;BME280;57143;55.940;37.496;2023-12-07T04:38:36;101594.00;;;-10.36;100.00
69848;BME280;57143;55.940;37.496;2023-12-07T04:41:04;101606.19;;;-10.34;100.00
69848;BME280;57143;55.940;37.496;2023-12-07T04:43:32;101614.00;;;-10.32;100.00
69848;BME280;57143;55.940;37.496;2023-12-07T04:46:00;101621.03;;;-10.34;100.00
69848;BME280;57143;55.940;37.496;2023-12-07T04:48:27;101617.44;;;-10.30;100.00
69848;BME280;57143;55.940;37.496;2023-12-07T04:50:55;101607.84;;;-10.31;100.00
69848;BME280;57143;55.940;37.496;2023-12-07T04:53:22;101612.13;;;-10.27;100.00
69848;BME280;57143;55.940;37.496;2023-12-07T04:55:50;101609.63;;;-10.33;100.00
69848;BME280;57143;55.940;37.496;2023-12-07T04:58:17;101617.59;;;-10.36;100.00
69848;BME280;57143;55.940;37.496;2023-12-07T05:00:46;101616.66;;;-10.34;100.00
69848;BME280;57143;55.940;37.496;2023-12-07T05:03:13;101627.09;;;-10.32;100.00
69848;BME280;57143;55.940;37.496;2023-12-07T05:05:41;101623.59;;;-10.33;100.00
69848;BME280;57143;55.940;37.496;2023-12-07T05:08:08;101634.00;;;-10.30;100.00
69848;BME280;57143;55.940;37.496;2023-12-07T05:10:35;101630.59;;;-10.33;100.00
69848;BME280;57143;55.940;37.496;2023-12-07T05:13:03;101634.09;;;-10.33;100.00
69848;BME280;57143;55.940;37.496;2023-12-07T05:15:31;101639.50;;;-10.39;100.00
69848;BME280;57143;55.940;37.496;2023-12-07T05:18:00;101628.16;;;-10.39;100.00
69848;BME280;57143;55.940;37.496;2023-12-07T05:20:27;101644.28;;;-10.22;100.00
69848;BME280;57143;55.940;37.496;2023-12-07T05:22:55;101646.00;;;-10.21;100.00
69848;BME280;57143;55.940;37.496;2023-12-07T05:25:22;101653.41;;;-10.35;100.00
69848;BME280;57143;55.940;37.496;2023-12-07T05:27:49;101657.75;;;-10.36;100.00
69848;BME280;57143;55.940;37.496;2023-12-07T05:30:17;101654.09;;;-10.29;100.00
69848;BME280;57143;55.940;37.496;2023-12-07T05:32:46;101642.13;;;-10.39;100.00
69848;BME280;57143;55.940;37.496;2023-12-07T05:35:15;101649.13;;;-10.39;100.00
69848;BME280;57143;55.940;37.496;2023-12-07T05:37:42;101656.78;;;-10.32;100.00
69848;BME280;57143;55.940;37.496;2023-12-07T05:40:10;101657.34;;;-10.21;100.00
69848;BME280;57143;55.940;37.496;2023-12-07T05:42:38;101660.25;;;-10.31;100.00
69848;BME280;57143;55.940;37.496;2023-12-07T05:45:06;101665.22;;;-10.21;100.00
69848;BME280;57143;55.940;37.496;2023-12-07T05:47:35;101655.00;;;-10.31;100.00
69848;BME280;57143;55.940;37.496;2023-12-07T05:50:03;101667.84;;;-10.21;100.00
69848;BME280;57143;55.940;37.496;2023-12-07T05:52:33;101665.13;;;-10.16;100.00
69848;BME280;57143;55.940;37.496;2023-12-07T05:55:00;101677.44;;;-10.20;100.00
69848;BME280;57143;55.940;37.496;2023-12-07T05:57:29;101653.19;;;-10.28;100.00
69848;BME280;57143;55.940;37.496;2023-12-07T05:59:57;101668.03;;;-10.27;100.00
69848;BME280;57143;55.940;37.496;2023-12-07T06:02:25;101673.22;;;-10.25;100.00
69848;BME280;57143;55.940;37.496;2023-12-07T06:04:53;101666.28;;;-10.28;100.00
69848;BME280;57143;55.940;37.496;2023-12-07T06:07:20;101676.81;;;-10.29;100.00
69848;BME280;57143;55.940;37.496;2023-12-07T06:09:50;101683.00;;;-10.32;100.00
69848;BME280;57143;55.940;37.496;2023-12-07T06:12:17;101696.81;;;-10.25;100.00
69848;BME280;57143;55.940;37.496;2023-12-07T06:14:46;101694.22;;;-10.27;100.00
69848;BME280;57143;55.940;37.496;2023-12-07T06:17:13;101697.63;;;-10.23;100.00
69848;BME280;57143;55.940;37.496;2023-12-07T06:19:41;101695.84;;;-10.23;100.00
69848;BME280;57143;55.940;37.496;2023-12-07T06:22:08;101698.59;;;-10.27;100.00
69848;BME280;57143;55.940;37.496;2023-12-07T06:24:36;101694.78;;;-10.16;100.00
69848;BME280;57143;55.940;37.496;2023-12-07T06:27:05;101700.03;;;-10.16;100.00
69848;BME280;57143;55.940;37.496;2023-12-07T06:29:32;101680.34;;;-10.30;100.00
69848;BME280;57143;55.940;37.496;2023-12-07T06:32:00;101700.91;;;-10.15;100.00
69848;BME280;57143;55.940;37.496;2023-12-07T06:34:27;101690.38;;;-10.14;100.00
69848;BME280;57143;55.940;37.496;2023-12-07T06:36:55;101713.00;;;-10.10;100.00
69848;BME280;57143;55.940;37.496;2023-12-07T06:39:22;101700.59;;;-10.05;100.00
69848;BME280;57143;55.940;37.496;2023-12-07T06:41:50;101702.25;;;-10.02;100.00
69848;BME280;57143;55.940;37.496;2023-12-07T06:44:19;101698.69;;;-9.98;100.00
69848;BME280;57143;55.940;37.496;2023-12-07T06:46:46;101697.91;;;-10.02;100.00
69848;BME280;57143;55.940;37.496;2023-12-07T06:49:13;101696.78;;;-9.93;100.00
69848;BME280;57143;55.940;37.496;2023-12-07T06:51:41;101701.22;;;-9.95;100.00
69848;BME280;57143;55.940;37.496;2023-12-07T06:54:08;101709.91;;;-9.93;100.00
69848;BME280;57143;55.940;37.496;2023-12-07T06:56:35;101692.50;;;-9.96;100.00
69848;BME280;57143;55.940;37.496;2023-12-07T06:59:03;101706.41;;;-9.92;100.00
69848;BME280;57143;55.940;37.496;2023-12-07T07:01:31;101698.06;;;-9.76;100.00
69848;BME280;57143;55.940;37.496;2023-12-07T07:03:59;101713.63;;;-9.70;100.00
69848;BME280;57143;55.940;37.496;2023-12-07T07:06:26;101689.41;;;-9.79;100.00
69848;BME280;57143;55.940;37.496;2023-12-07T07:08:53;101714.69;;;-9.44;100.00
69848;BME280;57143;55.940;37.496;2023-12-07T07:11:21;101716.19;;;-9.36;100.00
69848;BME280;57143;55.940;37.496;2023-12-07T07:13:48;101712.66;;;-9.35;100.00
69848;BME280;57143;55.940;37.496;2023-12-07T07:16:16;101729.69;;;-9.49;100.00
69848;BME280;57143;55.940;37.496;2023-12-07T07:18:45;101723.53;;;-9.48;100.00
69848;BME280;57143;55.940;37.496;2023-12-07T07:21:13;101710.84;;;-9.64;100.00
69848;BME280;57143;55.940;37.496;2023-12-07T07:23:40;101719.94;;;-9.44;100.00
69848;BME280;57143;55.940;37.496;2023-12-07T07:26:07;101710.94;;;-9.36;100.00
69848;BME280;57143;55.940;37.496;2023-12-07T07:28:35;101707.19;;;-9.27;100.00
69848;BME280;57143;55.940;37.496;2023-12-07T07:31:02;101738.91;;;-9.06;100.00
69848;BME280;57143;55.940;37.496;2023-12-07T07:33:30;101715.59;;;-9.15;100.00
69848;BME280;57143;55.940;37.496;2023-12-07T07:35:59;101744.31;;;-9.10;100.00
69848;BME280;57143;55.940;37.496;2023-12-07T07:38:26;101747.75;;;-9.08;100.00
69848;BME280;57143;55.940;37.496;2023-12-07T07:40:53;101755.34;;;-8.98;100.00
69848;BME280;57143;55.940;37.496;2023-12-07T07:43:21;101756.63;;;-9.12;100.00
69848;BME280;57143;55.940;37.496;2023-12-07T07:45:48;101773.34;;;-9.15;100.00
69848;BME280;57143;55.940;37.496;2023-12-07T07:48:15;101768.88;;;-9.11;100.00
69848;BME280;57143;55.940;37.496;2023-12-07T07:50:43;101764.84;;;-9.24;100.00
69848;BME280;57143;55.940;37.496;2023-12-07T07:53:12;101725.66;;;-9.61;100.00
69848;BME280;57143;55.940;37.496;2023-12-07T07:55:39;101772.13;;;-9.34;100.00
69848;BME280;57143;55.940;37.496;2023-12-07T07:58:08;101772.09;;;-9.32;100.00
69848;BME280;57143;55.940;37.496;2023-12-07T08:00:35;101760.50;;;-9.25;100.00
69848;BME280;57143;55.940;37.496;2023-12-07T08:03:03;101773.31;;;-8.84;100.00
69848;BME280;57143;55.940;37.496;2023-12-07T08:05:30;101775.41;;;-8.66;100.00
69848;BME280;57143;55.940;37.496;2023-12-07T08:07:59;101775.81;;;-8.52;100.00
69848;BME280;57143;55.940;37.496;2023-12-07T08:10:28;101761.06;;;-8.56;100.00
69848;BME280;57143;55.940;37.496;2023-12-07T08:12:55;101742.09;;;-8.95;100.00
69848;BME280;57143;55.940;37.496;2023-12-07T08:15:22;101802.22;;;-8.84;100.00
69848;BME280;57143;55.940;37.496;2023-12-07T08:17:50;101812.53;;;-8.78;100.00
69848;BME280;57143;55.940;37.496;2023-12-07T08:20:17;101801.00;;;-9.03;100.00
69848;BME280;57143;55.940;37.496;2023-12-07T08:22:45;101788.63;;;-9.29;100.00
69848;BME280;57143;55.940;37.496;2023-12-07T08:25:12;101797.03;;;-9.18;100.00
69848;BME280;57143;55.940;37.496;2023-12-07T08:27:41;101809.03;;;-9.08;100.00
69848;BME280;57143;55.940;37.496;2023-12-07T08:30:10;101816.00;;;-9.07;100.00
69848;BME280;57143;55.940;37.496;2023-12-07T08:32:38;101815.47;;;-9.19;100.00
69848;BME280;57143;55.940;37.496;2023-12-07T08:35:06;101806.56;;;-9.14;100.00
69848;BME280;57143;55.940;37.496;2023-12-07T08:37:36;101813.41;;;-9.08;100.00
69848;BME280;57143;55.940;37.496;2023-12-07T08:40:05;101809.97;;;-9.10;100.00
69848;BME280;57143;55.940;37.496;2023-12-07T08:42:32;101805.56;;;-9.40;100.00
69848;BME280;57143;55.940;37.496;2023-12-07T08:45:01;101810.06;;;-9.45;100.00
69848;BME280;57143;55.940;37.496;2023-12-07T08:47:30;101805.84;;;-9.51;100.00
69848;BME280;57143;55.940;37.496;2023-12-07T08:49:57;101799.88;;;-9.58;100.00
69848;BME280;57143;55.940;37.496;2023-12-07T08:52:25;101783.53;;;-9.67;100.00
69848;BME280;57143;55.940;37.496;2023-12-07T08:54:52;101780.06;;;-9.69;100.00
69848;BME280;57143;55.940;37.496;2023-12-07T08:57:20;101800.59;;;-9.51;100.00
69848;BME280;57143;55.940;37.496;2023-12-07T08:59:47;101796.50;;;-9.61;100.00
69848;BME280;57143;55.940;37.496;2023-12-07T09:02:16;101778.41;;;-9.72;100.00
69848;BME280;57143;55.940;37.496;2023-12-07T09:04:43;101786.81;;;-9.59;100.00
69848;BME280;57143;55.940;37.496;2023-12-07T09:07:11;101781.09;;;-9.75;100.00
69848;BME280;57143;55.940;37.496;2023-12-07T09:09:41;101775.19;;;-9.83;100.00
69848;BME280;57143;55.940;37.496;2023-12-07T09:12:13;101782.19;;;-9.83;100.00
69848;BME280;57143;55.940;37.496;2023-12-07T09:14:40;101785.53;;;-9.77;100.00
69848;BME280;57143;55.940;37.496;2023-12-07T09:17:08;101774.81;;;-9.69;100.00
69848;BME280;57143;55.940;37.496;2023-12-07T09:19:37;101782.56;;;-9.63;100.00
69848;BME280;57143;55.940;37.496;2023-12-07T09:22:04;101782.88;;;-9.75;100.00
69848;BME280;57143;55.940;37.496;2023-12-07T09:24:31;101784.31;;;-9.64;100.00
69848;BME280;57143;55.940;37.496;2023-12-07T09:26:59;101775.19;;;-9.83;100.00
69848;BME280;57143;55.940;37.496;2023-12-07T09:29:26;101757.81;;;-9.87;100.00
69848;BME280;57143;55.940;37.496;2023-12-07T09:31:53;101776.63;;;-9.71;100.00
69848;BME280;57143;55.940;37.496;2023-12-07T09:34:21;101750.66;;;-9.82;100.00
69848;BME280;57143;55.940;37.496;2023-12-07T09:37:05;101784.13;;;-9.58;100.00
69848;BME280;57143;55.940;37.496;2023-12-07T09:39:31;101794.75;;;-9.62;100.00
69848;BME280;57143;55.940;37.496;2023-12-07T09:41:59;101788.13;;;-9.75;100.00
69848;BME280;57143;55.940;37.496;2023-12-07T09:44:26;101794.34;;;-9.79;100.00
69848;BME280;57143;55.940;37.496;2023-12-07T09:46:54;101750.50;;;-10.08;100.00
69848;BME280;57143;55.940;37.496;2023-12-07T09:49:21;101785.84;;;-9.89;100.00
69848;BME280;57143;55.940;37.496;2023-12-07T09:51:50;101784.53;;;-10.06;100.00
69848;BME280;57143;55.940;37.496;2023-12-07T09:54:20;101770.72;;;-10.13;100.00
69848;BME280;57143;55.940;37.496;2023-12-07T09:56:49;101791.69;;;-10.11;100.00
69848;BME280;57143;55.940;37.496;2023-12-07T09:59:19;101778.53;;;-10.10;100.00
69848;BME280;57143;55.940;37.496;2023-12-07T10:01:46;101784.59;;;-10.08;100.00
69848;BME280;57143;55.940;37.496;2023-12-07T10:04:19;101792.44;;;-10.08;100.00
69848;BME280;57143;55.940;37.496;2023-12-07T10:06:50;101781.97;;;-10.08;100.00
69848;BME280;57143;55.940;37.496;2023-12-07T10:09:18;101778.75;;;-10.19;100.00
69848;BME280;57143;55.940;37.496;2023-12-07T10:11:47;101757.78;;;-10.19;100.00
69848;BME280;57143;55.940;37.496;2023-12-07T10:14:14;101795.91;;;-10.07;100.00
69848;BME280;57143;55.940;37.496;2023-12-07T10:16:52;101774.22;;;-10.12;100.00
69848;BME280;57143;55.940;37.496;2023-12-07T10:19:21;101784.91;;;-10.20;100.00
69848;BME280;57143;55.940;37.496;2023-12-07T10:21:51;101790.91;;;-10.15;100.00
69848;BME280;57143;55.940;37.496;2023-12-07T10:24:20;101784.75;;;-10.14;100.00
69848;BME280;57143;55.940;37.496;2023-12-07T10:26:48;101800.31;;;-10.08;100.00
69848;BME280;57143;55.940;37.496;2023-12-07T10:29:17;101779.66;;;-10.20;100.00
69848;BME280;57143;55.940;37.496;2023-12-07T10:31:45;101801.09;;;-10.06;100.00
69848;BME280;57143;55.940;37.496;2023-12-07T10:34:17;101792.31;;;-10.03;100.00
69848;BME280;57143;55.940;37.496;2023-12-07T10:36:46;101788.53;;;-9.92;100.00
69848;BME280;57143;55.940;37.496;2023-12-07T10:39:15;101791.28;;;-9.96;100.00
69848;BME280;57143;55.940;37.496;2023-12-07T10:41:43;101791.09;;;-9.90;100.00
69848;BME280;57143;55.940;37.496;2023-12-07T10:44:14;101798.97;;;-9.89;100.00
69848;BME280;57143;55.940;37.496;2023-12-07T10:46:43;101798.06;;;-9.88;100.00
69848;BME280;57143;55.940;37.496;2023-12-07T10:49:21;101796.31;;;-9.87;100.00
69848;BME280;57143;55.940;37.496;2023-12-07T10:51:58;101802.38;;;-9.87;100.00
69848;BME280;57143;55.940;37.496;2023-12-07T10:54:34;101794.66;;;-9.91;100.00
69848;BME280;57143;55.940;37.496;2023-12-07T10:57:06;101782.13;;;-10.14;100.00
69848;BME280;57143;55.940;37.496;2023-12-07T10:59:36;101806.88;;;-9.92;100.00
69848;BME280;57143;55.940;37.496;2023-12-07T11:02:06;101787.88;;;-10.00;100.00
69848;BME280;57143;55.940;37.496;2023-12-07T11:04:37;101785.38;;;-10.06;100.00
69848;BME280;57143;55.940;37.496;2023-12-07T11:07:09;101789.78;;;-10.06;100.00
69848;BME280;57143;55.940;37.496;2023-12-07T11:09:44;101791.69;;;-10.13;100.00
69848;BME280;57143;55.940;37.496;2023-12-07T11:12:18;101808.34;;;-10.14;100.00
69848;BME280;57143;55.940;37.496;2023-12-07T11:14:48;101820.28;;;-10.04;100.00
69848;BME280;57143;55.940;37.496;2023-12-07T11:17:16;101814.88;;;-9.96;100.00
69848;BME280;57143;55.940;37.496;2023-12-07T11:19:44;101797.47;;;-10.00;100.00
69848;BME280;57143;55.940;37.496;2023-12-07T11:22:12;101799.19;;;-9.98;100.00
69848;BME280;57143;55.940;37.496;2023-12-07T11:24:54;101812.06;;;-9.89;100.00
69848;BME280;57143;55.940;37.496;2023-12-07T11:27:24;101803.44;;;-9.92;100.00
69848;BME280;57143;55.940;37.496;2023-12-07T11:29:52;101806.34;;;-10.04;100.00
69848;BME280;57143;55.940;37.496;2023-12-07T11:32:20;101824.41;;;-9.94;100.00
69848;BME280;57143;55.940;37.496;2023-12-07T11:34:47;101822.78;;;-9.98;100.00
69848;BME280;57143;55.940;37.496;2023-12-07T11:37:15;101795.44;;;-10.23;100.00
69848;BME280;57143;55.940;37.496;2023-12-07T11:39:43;101811.53;;;-10.03;100.00
69848;BME280;57143;55.940;37.496;2023-12-07T11:42:15;101775.72;;;-10.37;100.00
69848;BME280;57143;55.940;37.496;2023-12-07T11:44:45;101814.91;;;-9.98;100.00
69848;BME280;57143;55.940;37.496;2023-12-07T11:47:16;101818.69;;;-10.09;100.00
69848;BME280;57143;55.940;37.496;2023-12-07T11:49:44;101819.69;;;-10.13;100.00
69848;BME280;57143;55.940;37.496;2023-12-07T11:52:13;101824.97;;;-10.15;100.00
69848;BME280;57143;55.940;37.496;2023-12-07T11:54:43;101810.53;;;-10.32;100.00
69848;BME280;57143;55.940;37.496;2023-12-07T11:57:13;101824.44;;;-10.29;100.00
69848;BME280;57143;55.940;37.496;2023-12-07T11:59:41;101819.28;;;-10.33;100.00
69848;BME280;57143;55.940;37.496;2023-12-07T12:02:10;101809.63;;;-10.31;100.00
69848;BME280;57143;55.940;37.496;2023-12-07T12:04:38;101811.41;;;-10.33;100.00
69848;BME280;57143;55.940;37.496;2023-12-07T12:07:06;101810.56;;;-10.34;100.00
69848;BME280;57143;55.940;37.496;2023-12-07T12:09:34;101815.78;;;-10.32;100.00
69848;BME280;57143;55.940;37.496;2023-12-07T12:12:01;101801.09;;;-10.39;100.00
69848;BME280;57143;55.940;37.496;2023-12-07T12:14:30;101797.56;;;-10.38;100.00
69848;BME280;57143;55.940;37.496;2023-12-07T12:16:57;101805.56;;;-10.44;100.00
69848;BME280;57143;55.940;37.496;2023-12-07T12:19:25;101806.56;;;-10.50;100.00
69848;BME280;57143;55.940;37.496;2023-12-07T12:21:54;101804.81;;;-10.49;100.00
69848;BME280;57143;55.940;37.496;2023-12-07T12:24:21;101808.41;;;-10.53;100.00
69848;BME280;57143;55.940;37.496;2023-12-07T12:26:50;101758.34;;;-10.80;100.00
69848;BME280;57143;55.940;37.496;2023-12-07T12:29:18;101788.59;;;-10.65;100.00
69848;BME280;57143;55.940;37.496;2023-12-07T12:31:47;101806.81;;;-10.60;100.00